createdAt,value
2023-03-16T00:01:48.201Z,62.68
2023-03-16T00:04:14.651Z,63.82
2023-03-16T00:06:40.766Z,64.73
2023-03-16T00:09:06.934Z,63.85
2023-03-16T00:11:33.094Z,58.87
2023-03-16T00:13:59.217Z,62.58
2023-03-16T00:16:25.422Z,63.79
2023-03-16T00:18:51.611Z,64.81
2023-03-16T00:21:17.753Z,65.05
2023-03-16T00:23:43.868Z,64.94
2023-03-16T00:26:10.034Z,65.32
2023-03-16T00:28:36.273Z,65.63
2023-03-16T00:31:02.415Z,65.83
2023-03-16T00:33:28.655Z,64.39
2023-03-16T00:35:56.322Z,64.70
2023-03-16T00:38:22.558Z,65.44
2023-03-16T00:40:48.789Z,65.45
2023-03-16T00:43:14.909Z,65.06
2023-03-16T00:45:41.082Z,65.29
2023-03-16T00:48:07.180Z,65.67
2023-03-16T00:50:33.269Z,65.49
2023-03-16T00:52:59.429Z,65.71
2023-03-16T00:55:25.865Z,62.93
2023-03-16T00:57:52.096Z,64.95
2023-03-16T01:00:18.249Z,67.03
2023-03-16T01:02:44.492Z,67.98
2023-03-16T01:05:10.650Z,65.14
2023-03-16T01:07:36.777Z,64.94
2023-03-16T01:10:02.928Z,64.33
2023-03-16T01:12:29.392Z,64.00
2023-03-16T01:14:55.570Z,63.00
2023-03-16T01:17:21.920Z,63.02
2023-03-16T01:19:48.190Z,62.37
2023-03-16T01:22:14.318Z,62.81
2023-03-16T01:24:40.779Z,64.39
2023-03-16T01:27:07.017Z,64.17
2023-03-16T01:29:33.474Z,65.39
2023-03-16T01:31:59.872Z,65.97
2023-03-16T01:34:26.037Z,64.14
2023-03-16T01:36:52.183Z,64.82
2023-03-16T01:39:18.343Z,64.64
2023-03-16T01:41:44.542Z,66.04
2023-03-16T01:44:10.676Z,66.30
2023-03-16T01:46:36.937Z,66.65
2023-03-16T01:49:03.193Z,67.53
2023-03-16T01:51:29.687Z,68.53
2023-03-16T01:53:56.118Z,66.01
2023-03-16T01:56:22.377Z,66.65
2023-03-16T01:58:48.680Z,68.00
2023-03-16T02:01:14.882Z,66.65
2023-03-16T02:03:41.018Z,66.37
2023-03-16T02:06:07.166Z,66.77
2023-03-16T02:08:33.278Z,65.80
2023-03-16T02:10:59.604Z,65.54
2023-03-16T02:13:25.747Z,68.21
2023-03-16T02:15:52.078Z,66.87
2023-03-16T02:18:18.569Z,65.59
2023-03-16T02:20:44.792Z,63.79
2023-03-16T02:23:10.910Z,65.69
2023-03-16T02:25:37.154Z,66.67
2023-03-16T02:28:03.388Z,63.06
2023-03-16T02:30:29.975Z,62.01
2023-03-16T02:32:56.670Z,63.45
2023-03-16T02:35:22.872Z,63.77
2023-03-16T02:37:48.987Z,63.17
2023-03-16T02:40:15.473Z,62.67
2023-03-16T02:42:41.580Z,64.44
2023-03-16T02:45:07.853Z,65.11
2023-03-16T02:47:33.977Z,67.38
2023-03-16T02:50:00.273Z,66.55
2023-03-16T02:52:26.430Z,64.06
2023-03-16T02:54:52.688Z,64.84
2023-03-16T02:57:18.916Z,64.77
2023-03-16T02:59:45.355Z,66.45
2023-03-16T03:02:11.489Z,68.56
2023-03-16T03:04:37.725Z,69.73
2023-03-16T03:07:03.950Z,68.80
2023-03-16T03:09:30.143Z,67.67
2023-03-16T03:11:56.445Z,67.68
2023-03-16T03:14:22.709Z,66.42
2023-03-16T03:16:48.869Z,66.76
2023-03-16T03:19:15.008Z,67.81
2023-03-16T03:21:41.129Z,68.13
2023-03-16T03:24:07.610Z,65.32
2023-03-16T03:26:33.931Z,66.24
2023-03-16T03:29:00.025Z,67.25
2023-03-16T03:31:26.197Z,66.64
2023-03-16T03:33:52.467Z,66.48
2023-03-16T03:36:18.586Z,64.07
2023-03-16T03:38:44.851Z,65.38
2023-03-16T03:41:11.035Z,66.37
2023-03-16T03:43:37.169Z,67.16
2023-03-16T03:46:03.464Z,68.23
2023-03-16T03:48:29.660Z,69.30
2023-03-16T03:50:55.925Z,66.84
2023-03-16T03:53:22.077Z,67.91
2023-03-16T03:55:48.319Z,67.70
2023-03-16T03:58:14.558Z,68.50
2023-03-16T04:00:41.012Z,66.65
2023-03-16T04:03:07.417Z,65.70
2023-03-16T04:05:33.722Z,68.03
2023-03-16T04:08:00.231Z,68.39
2023-03-16T04:10:26.627Z,69.17
2023-03-16T04:12:52.933Z,67.71
2023-03-16T04:15:19.414Z,69.62
2023-03-16T04:17:45.549Z,67.26
2023-03-16T04:20:11.684Z,68.01
2023-03-16T04:22:38.120Z,63.90
2023-03-16T04:25:04.265Z,61.26
2023-03-16T04:27:30.505Z,65.40
2023-03-16T04:29:56.882Z,67.90
2023-03-16T04:32:23.210Z,65.47
2023-03-16T04:34:49.657Z,66.13
2023-03-16T04:37:15.750Z,66.65
2023-03-16T04:39:41.919Z,67.97
2023-03-16T04:42:08.033Z,67.01
2023-03-16T04:44:34.130Z,67.76
2023-03-16T04:47:00.366Z,67.23
2023-03-16T04:49:26.525Z,66.15
2023-03-16T04:51:52.605Z,66.95
2023-03-16T04:54:18.867Z,68.29
2023-03-16T04:56:45.022Z,68.77
2023-03-16T04:59:11.154Z,68.17
2023-03-16T05:01:37.360Z,67.72
2023-03-16T05:04:03.553Z,66.49
2023-03-16T05:06:30.052Z,67.05
2023-03-16T05:08:56.240Z,66.89
2023-03-16T05:11:22.342Z,67.80
2023-03-16T05:13:48.606Z,69.20
2023-03-16T05:16:14.817Z,69.08
2023-03-16T05:18:40.991Z,64.55
2023-03-16T05:21:07.212Z,64.83
2023-03-16T05:23:33.751Z,65.78
2023-03-16T05:25:59.928Z,65.69
2023-03-16T05:28:26.104Z,66.89
2023-03-16T05:30:52.257Z,69.70
2023-03-16T05:33:18.390Z,68.93
2023-03-16T05:35:44.614Z,66.54
2023-03-16T05:38:10.798Z,66.70
2023-03-16T05:40:36.963Z,66.80
2023-03-16T05:43:03.243Z,64.97
2023-03-16T05:45:29.378Z,68.53
2023-03-16T05:47:55.498Z,67.67
2023-03-16T05:50:21.699Z,65.36
2023-03-16T05:52:48.157Z,64.09
2023-03-16T05:55:14.600Z,65.11
2023-03-16T05:57:40.891Z,65.93
2023-03-16T06:00:06.985Z,66.37
2023-03-16T06:02:33.280Z,67.80
2023-03-16T06:04:59.793Z,68.81
2023-03-16T06:07:28.757Z,69.51
2023-03-16T06:09:55.300Z,68.69
2023-03-16T06:12:21.565Z,68.19
2023-03-16T06:14:47.820Z,64.89
2023-03-16T06:17:13.958Z,64.93
2023-03-16T06:19:40.110Z,64.00
2023-03-16T06:22:06.363Z,61.75
2023-03-16T06:24:32.559Z,60.33
2023-03-16T06:26:59.506Z,60.45
2023-03-16T06:29:25.634Z,63.52
2023-03-16T06:31:51.874Z,65.50
2023-03-16T06:34:18.220Z,67.97
2023-03-16T06:36:44.421Z,68.11
2023-03-16T06:39:10.604Z,68.45
2023-03-16T06:41:36.749Z,66.59
2023-03-16T06:44:03.192Z,66.72
2023-03-16T06:46:29.672Z,62.81
2023-03-16T06:48:55.857Z,62.89
2023-03-16T06:51:21.991Z,61.60
2023-03-16T06:53:48.155Z,60.90
2023-03-16T06:56:14.313Z,63.95
2023-03-16T06:58:40.752Z,65.06
2023-03-16T07:01:07.286Z,66.26
2023-03-16T07:03:33.745Z,66.27
2023-03-16T07:05:59.925Z,65.15
2023-03-16T07:08:26.049Z,64.97
2023-03-16T07:10:52.191Z,65.23
2023-03-16T07:13:18.349Z,62.09
2023-03-16T07:15:44.565Z,60.64
2023-03-16T07:18:10.725Z,63.80
2023-03-16T07:20:36.850Z,63.76
2023-03-16T07:23:03.149Z,61.46
2023-03-16T07:25:29.275Z,60.79
2023-03-16T07:27:55.730Z,54.31
2023-03-16T07:30:21.859Z,52.46
2023-03-16T07:32:48.101Z,47.33
2023-03-16T07:35:14.347Z,48.56
2023-03-16T07:37:41.521Z,44.38
2023-03-16T07:40:07.651Z,27.65
2023-03-16T07:42:34.332Z,30.79
2023-03-16T07:45:00.552Z,32.23
2023-03-16T07:47:26.795Z,36.14
2023-03-16T07:49:53.254Z,36.62
2023-03-16T07:52:19.494Z,36.78
2023-03-16T07:54:45.939Z,35.29
2023-03-16T07:57:12.370Z,37.44
2023-03-16T07:59:38.573Z,39.62
2023-03-16T08:02:04.723Z,40.06
2023-03-16T08:04:30.841Z,42.68
2023-03-16T08:06:56.979Z,41.73
2023-03-16T08:09:23.276Z,42.70
2023-03-16T08:11:49.413Z,43.96
2023-03-16T08:14:15.738Z,46.72
2023-03-16T08:16:41.879Z,46.66
2023-03-16T08:19:08.038Z,42.74
2023-03-16T08:21:40.113Z,42.06
2023-03-16T08:24:14.948Z,42.07
2023-03-16T08:26:41.106Z,39.26
2023-03-16T08:29:09.813Z,39.83
2023-03-16T08:31:35.995Z,40.43
2023-03-16T08:34:02.193Z,38.82
2023-03-16T08:36:28.345Z,39.78
2023-03-16T08:39:06.151Z,41.51
2023-03-16T08:41:32.883Z,41.95
2023-03-16T08:43:59.129Z,40.46
2023-03-16T08:46:25.401Z,36.74
2023-03-16T08:48:51.587Z,33.98
2023-03-16T08:51:17.775Z,34.52
2023-03-16T08:53:44.014Z,33.34
2023-03-16T08:56:10.119Z,23.59
2023-03-16T08:58:38.459Z,17.94
2023-03-16T09:01:04.931Z,14.84
2023-03-16T09:03:31.182Z,13.64
2023-03-16T09:05:57.301Z,11.74
2023-03-16T09:08:23.447Z,13.15
2023-03-16T09:10:49.683Z,12.76
2023-03-16T09:13:15.975Z,12.50
2023-03-16T09:15:42.107Z,15.51
2023-03-16T09:18:08.230Z,14.37
2023-03-16T09:20:34.498Z,11.30
2023-03-16T09:23:00.981Z,10.04
2023-03-16T09:25:27.438Z,10.19
2023-03-16T09:27:54.377Z,10.15
2023-03-16T09:30:20.535Z,8.87
2023-03-16T09:32:46.774Z,9.41
2023-03-16T09:35:13.229Z,9.59
2023-03-16T09:37:45.504Z,9.19
2023-03-16T09:40:17.305Z,8.47
2023-03-16T09:42:43.470Z,8.59
2023-03-16T09:45:09.625Z,8.94
2023-03-16T09:47:35.936Z,8.83
2023-03-16T09:50:02.118Z,8.96
2023-03-16T09:52:28.298Z,8.18
2023-03-16T09:54:54.545Z,8.82
2023-03-16T09:57:20.666Z,7.71
2023-03-16T09:59:46.901Z,8.23
2023-03-16T10:02:13.130Z,11.00
2023-03-16T10:04:39.291Z,16.83
2023-03-16T10:07:05.611Z,20.16
2023-03-16T10:09:31.729Z,21.95
2023-03-16T10:11:57.867Z,23.29
2023-03-16T10:14:24.048Z,23.63
2023-03-16T10:16:50.621Z,23.43
2023-03-16T10:19:16.791Z,24.15
2023-03-16T10:21:42.973Z,25.82
2023-03-16T10:24:09.427Z,26.55
2023-03-16T10:26:35.588Z,26.53
2023-03-16T10:29:02.043Z,27.27
2023-03-16T10:31:28.415Z,27.53
2023-03-16T10:33:54.714Z,25.72
2023-03-16T10:36:20.996Z,23.64
2023-03-16T10:38:47.145Z,24.27
2023-03-16T10:41:13.401Z,24.53
2023-03-16T10:43:39.686Z,24.24
2023-03-16T10:46:06.005Z,24.84
2023-03-16T10:48:33.949Z,24.36
2023-03-16T10:51:00.199Z,24.27
2023-03-16T10:53:26.307Z,26.02
2023-03-16T10:55:52.431Z,28.06
2023-03-16T10:58:18.634Z,27.85
2023-03-16T11:00:44.754Z,29.01
2023-03-16T11:03:10.902Z,28.36
2023-03-16T11:05:37.264Z,26.74
2023-03-16T11:08:03.392Z,25.92
2023-03-16T11:10:29.529Z,26.82
2023-03-16T11:12:58.715Z,27.73
2023-03-16T11:15:26.707Z,27.06
2023-03-16T11:17:52.880Z,26.88
2023-03-16T11:20:19.111Z,26.72
2023-03-16T11:22:45.639Z,27.74
2023-03-16T11:25:11.852Z,27.92
2023-03-16T11:27:37.968Z,28.51
2023-03-16T11:30:04.119Z,28.87
2023-03-16T11:32:30.384Z,27.12
2023-03-16T11:34:56.842Z,29.39
2023-03-16T11:37:22.989Z,29.71
2023-03-16T11:39:49.436Z,30.62
2023-03-16T11:42:15.600Z,30.50
2023-03-16T11:44:41.761Z,30.92
2023-03-16T11:47:08.209Z,30.63
2023-03-16T11:49:34.343Z,31.44
2023-03-16T11:52:00.808Z,32.81
2023-03-16T11:54:27.014Z,32.88
2023-03-16T11:56:53.433Z,32.67
2023-03-16T11:59:19.872Z,33.33
2023-03-16T12:01:58.262Z,33.16
2023-03-16T12:04:26.953Z,31.47
2023-03-16T12:06:53.136Z,32.78
2023-03-16T12:09:19.426Z,31.95
2023-03-16T12:11:45.588Z,31.56
2023-03-16T12:14:11.902Z,31.18
2023-03-16T12:16:48.572Z,29.92
2023-03-16T12:19:15.761Z,30.64
2023-03-16T12:21:41.893Z,30.76
2023-03-16T12:24:08.028Z,30.14
2023-03-16T12:26:34.173Z,29.06
2023-03-16T12:29:00.310Z,28.75
2023-03-16T12:31:26.828Z,29.10
2023-03-16T12:33:53.320Z,30.01
2023-03-16T12:36:19.457Z,27.87
2023-03-16T12:38:45.585Z,27.85
2023-03-16T12:41:11.746Z,28.02
2023-03-16T12:43:38.201Z,27.28
2023-03-16T12:46:04.338Z,27.47
2023-03-16T12:48:30.645Z,27.88
2023-03-16T12:50:56.738Z,27.84
2023-03-16T12:53:22.870Z,28.18
2023-03-16T12:55:49.013Z,27.88
2023-03-16T12:58:15.140Z,28.49
2023-03-16T13:00:41.429Z,27.75
2023-03-16T13:03:07.665Z,27.49
2023-03-16T13:05:33.861Z,26.68
2023-03-16T13:08:00.029Z,27.36
2023-03-16T13:10:26.209Z,28.12
2023-03-16T13:12:52.341Z,27.55
2023-03-16T13:15:18.505Z,27.58
2023-03-16T13:17:44.676Z,26.68
2023-03-16T13:20:13.718Z,26.55
2023-03-16T13:22:44.288Z,26.25
2023-03-16T13:25:10.461Z,25.54
2023-03-16T13:27:36.583Z,25.23
2023-03-16T13:30:02.704Z,27.26
2023-03-16T13:32:29.179Z,27.99
2023-03-16T13:34:55.300Z,28.45
2023-03-16T13:37:21.458Z,27.00
2023-03-16T13:39:47.628Z,26.45
2023-03-16T13:42:13.762Z,26.30
2023-03-16T13:44:39.898Z,26.29
2023-03-16T13:47:06.042Z,28.33
2023-03-16T13:49:32.150Z,28.77
2023-03-16T13:51:58.320Z,29.21
2023-03-16T13:54:24.460Z,29.71
2023-03-16T13:56:50.617Z,30.51
2023-03-16T13:59:17.056Z,30.86
2023-03-16T14:01:43.523Z,30.51
2023-03-16T14:04:09.689Z,30.54
2023-03-16T14:06:35.870Z,31.51
2023-03-16T14:09:02.029Z,32.18
2023-03-16T14:11:28.173Z,32.73
2023-03-16T14:13:54.619Z,32.73
2023-03-16T14:16:20.895Z,32.83
2023-03-16T14:18:47.158Z,31.92
2023-03-16T14:21:13.319Z,31.72
2023-03-16T14:23:39.636Z,31.98
2023-03-16T14:26:05.873Z,30.83
2023-03-16T14:28:32.445Z,29.79
2023-03-16T14:30:58.659Z,36.26
2023-03-16T14:33:25.117Z,40.55
2023-03-16T14:35:53.610Z,40.45
2023-03-16T14:38:19.877Z,40.50
2023-03-16T14:40:46.030Z,40.07
2023-03-16T14:43:12.565Z,41.11
2023-03-16T14:45:38.815Z,42.82
2023-03-16T14:48:04.936Z,43.15
2023-03-16T14:50:31.114Z,42.99
2023-03-16T14:52:57.517Z,43.58
2023-03-16T14:55:23.960Z,44.43
2023-03-16T14:57:50.101Z,46.80
2023-03-16T15:00:16.554Z,46.70
2023-03-16T15:02:42.736Z,47.32
2023-03-16T15:05:08.935Z,47.51
2023-03-16T15:07:35.102Z,48.37
2023-03-16T15:10:01.553Z,47.30
2023-03-16T15:12:27.959Z,47.94
2023-03-16T15:14:54.123Z,48.60
2023-03-16T15:17:20.556Z,49.07
2023-03-16T15:19:46.696Z,49.20
2023-03-16T15:22:12.876Z,50.51
2023-03-16T15:24:39.058Z,50.74
2023-03-16T15:27:05.669Z,51.54
2023-03-16T15:29:31.765Z,51.68
2023-03-16T15:31:58.206Z,51.60
2023-03-16T15:34:24.319Z,50.45
2023-03-16T15:36:50.463Z,50.42
2023-03-16T15:39:16.716Z,50.42
2023-03-16T15:41:47.850Z,51.71
2023-03-16T15:44:14.342Z,54.20
2023-03-16T15:46:40.837Z,54.95
2023-03-16T15:49:07.074Z,55.71
2023-03-16T15:51:33.399Z,56.77
2023-03-16T15:53:59.709Z,56.90
2023-03-16T15:56:25.881Z,56.47
2023-03-16T15:58:52.163Z,57.68
2023-03-16T16:01:18.507Z,58.28
2023-03-16T16:03:44.738Z,59.84
2023-03-16T16:06:10.897Z,60.41
2023-03-16T16:08:37.016Z,60.14
2023-03-16T16:11:03.168Z,61.05
2023-03-16T16:13:43.200Z,61.52
2023-03-16T16:16:10.111Z,61.38
2023-03-16T16:18:36.350Z,61.46
2023-03-16T16:21:03.351Z,64.02
2023-03-16T16:23:29.516Z,63.20
2023-03-16T16:25:55.990Z,62.16
2023-03-16T16:28:22.310Z,62.14
2023-03-16T16:30:48.512Z,62.74
2023-03-16T16:33:14.846Z,64.13
2023-03-16T16:35:41.059Z,64.98
2023-03-16T16:38:07.253Z,63.90
2023-03-16T16:40:33.447Z,60.92
2023-03-16T16:42:59.575Z,62.48
2023-03-16T16:45:25.997Z,64.38
2023-03-16T16:47:52.318Z,65.32
2023-03-16T16:50:18.535Z,63.60
2023-03-16T16:52:44.680Z,63.44
2023-03-16T16:55:11.041Z,65.07
2023-03-16T16:57:37.263Z,65.20
2023-03-16T17:00:03.721Z,66.40
2023-03-16T17:02:29.882Z,64.58
2023-03-16T17:04:56.059Z,64.46
2023-03-16T17:07:22.249Z,64.69
2023-03-16T17:09:48.400Z,66.43
2023-03-16T17:12:14.854Z,64.23
2023-03-16T17:14:41.083Z,63.33
2023-03-16T17:17:07.268Z,64.97
2023-03-16T17:19:33.730Z,65.96
2023-03-16T17:21:59.897Z,63.92
2023-03-16T17:24:26.043Z,65.76
2023-03-16T17:26:52.209Z,66.41
2023-03-16T17:29:18.566Z,67.72
2023-03-16T17:31:44.704Z,67.77
2023-03-16T17:34:10.900Z,67.92
2023-03-16T17:36:37.050Z,68.42
2023-03-16T17:39:03.228Z,69.36
2023-03-16T17:41:32.443Z,69.79
2023-03-16T17:43:59.023Z,69.11
2023-03-16T17:46:25.380Z,69.71
2023-03-16T17:48:51.623Z,69.02
2023-03-16T17:51:18.094Z,68.71
2023-03-16T17:53:44.552Z,70.03
2023-03-16T17:56:10.682Z,70.35
2023-03-16T17:58:36.824Z,68.49
2023-03-16T18:01:03.001Z,68.28
2023-03-16T18:03:30.710Z,67.45
2023-03-16T18:05:57.084Z,69.07
2023-03-16T18:08:23.503Z,69.20
2023-03-16T18:10:49.744Z,69.02
2023-03-16T18:13:15.888Z,68.66
2023-03-16T18:15:42.063Z,68.99
2023-03-16T18:18:08.221Z,69.91
2023-03-16T18:20:34.586Z,69.47
2023-03-16T18:23:00.797Z,70.09
2023-03-16T18:25:27.023Z,70.23
2023-03-16T18:27:53.177Z,70.51
2023-03-16T18:30:19.337Z,70.46
2023-03-16T18:32:45.477Z,70.73
2023-03-16T18:35:11.705Z,69.95
2023-03-16T18:37:38.129Z,67.47
2023-03-16T18:40:04.262Z,67.49
2023-03-16T18:42:30.407Z,67.47
2023-03-16T18:44:56.541Z,68.44
2023-03-16T18:47:22.674Z,68.62
2023-03-16T18:49:49.010Z,70.10
2023-03-16T18:52:15.270Z,67.65
2023-03-16T18:54:41.443Z,67.54
2023-03-16T18:57:07.562Z,67.24
2023-03-16T18:59:33.692Z,67.00
2023-03-16T19:02:00.169Z,69.13
2023-03-16T19:04:26.546Z,67.78
2023-03-16T19:06:52.714Z,66.75
2023-03-16T19:09:18.866Z,69.60
2023-03-16T19:11:45.012Z,69.39
2023-03-16T19:14:11.210Z,70.10
2023-03-16T19:16:37.399Z,70.57
2023-03-16T19:19:03.560Z,68.42
2023-03-16T19:21:29.984Z,69.70
2023-03-16T19:23:56.440Z,70.53
2023-03-16T19:26:22.585Z,70.09
2023-03-16T19:28:48.810Z,68.71
2023-03-16T19:31:15.326Z,65.71
2023-03-16T19:33:41.700Z,65.19
2023-03-16T19:36:07.871Z,70.14
2023-03-16T19:38:34.062Z,69.00
2023-03-16T19:41:00.173Z,66.96
2023-03-16T19:43:26.391Z,67.45
2023-03-16T19:45:52.545Z,71.00
2023-03-16T19:48:18.720Z,68.32
2023-03-16T19:50:45.002Z,66.79
2023-03-16T19:53:11.165Z,70.10
2023-03-16T19:55:37.321Z,71.17
2023-03-16T19:58:03.471Z,70.74
2023-03-16T20:00:29.559Z,69.52
2023-03-16T20:02:55.697Z,68.86
2023-03-16T20:05:22.125Z,68.85
2023-03-16T20:07:48.265Z,68.10
2023-03-16T20:10:14.735Z,68.79
2023-03-16T20:12:40.897Z,69.20
2023-03-16T20:15:07.161Z,70.77
2023-03-16T20:17:33.318Z,70.82
2023-03-16T20:19:59.647Z,67.78
2023-03-16T20:22:26.869Z,67.85
2023-03-16T20:24:53.089Z,68.74
2023-03-16T20:27:19.211Z,66.38
2023-03-16T20:29:45.352Z,68.24
2023-03-16T20:32:11.572Z,69.26
2023-03-16T20:34:37.704Z,70.22
2023-03-16T20:37:03.873Z,69.21
2023-03-16T20:39:30.132Z,69.80
2023-03-16T20:41:56.281Z,68.57
2023-03-16T20:44:22.507Z,62.72
2023-03-16T20:46:48.723Z,64.31
2023-03-16T20:49:14.966Z,63.57
2023-03-16T20:51:41.265Z,68.66
2023-03-16T20:54:07.503Z,66.04
2023-03-16T20:56:33.945Z,63.90
2023-03-16T20:59:00.212Z,64.10
2023-03-16T21:01:26.369Z,66.38
2023-03-16T21:03:52.487Z,68.18
2023-03-16T21:06:18.622Z,69.64
2023-03-16T21:08:44.827Z,68.93
2023-03-16T21:11:11.291Z,67.78
2023-03-16T21:13:37.514Z,67.39
2023-03-16T21:16:04.018Z,67.59
2023-03-16T21:18:30.603Z,69.33
2023-03-16T21:20:57.187Z,68.31
2023-03-16T21:23:23.349Z,67.18
2023-03-16T21:25:49.684Z,65.93
2023-03-16T21:28:15.837Z,67.85
2023-03-16T21:30:42.011Z,69.74
2023-03-16T21:33:08.166Z,65.43
2023-03-16T21:35:34.275Z,63.27
2023-03-16T21:38:00.418Z,61.30
2023-03-16T21:40:26.588Z,65.34
2023-03-16T21:42:52.737Z,64.74
2023-03-16T21:45:18.999Z,63.55
2023-03-16T21:47:45.157Z,62.13
2023-03-16T21:50:11.317Z,64.74
2023-03-16T21:52:37.646Z,64.14
2023-03-16T21:55:03.805Z,63.13
2023-03-16T21:57:29.969Z,64.71
2023-03-16T21:59:56.136Z,67.62
2023-03-16T22:02:22.863Z,62.65
2023-03-16T22:04:49.102Z,56.05
2023-03-16T22:07:15.212Z,59.33
2023-03-16T22:09:41.308Z,66.26
2023-03-16T22:12:07.498Z,64.32
2023-03-16T22:14:33.925Z,62.15
2023-03-16T22:17:00.155Z,64.55
2023-03-16T22:19:26.356Z,67.51
2023-03-16T22:21:52.792Z,64.89
2023-03-16T22:24:18.912Z,65.68
2023-03-16T22:26:45.018Z,67.81
2023-03-16T22:29:11.164Z,66.78
2023-03-16T22:31:37.333Z,64.93
2023-03-16T22:34:03.553Z,65.42
2023-03-16T22:36:29.652Z,60.12
2023-03-16T22:38:55.927Z,60.30
2023-03-16T22:41:22.083Z,63.32
2023-03-16T22:43:48.364Z,63.65
2023-03-16T22:46:14.624Z,62.59
2023-03-16T22:48:40.792Z,59.88
2023-03-16T22:51:06.919Z,64.53
2023-03-16T22:53:33.044Z,67.94
2023-03-16T22:55:59.270Z,65.91
2023-03-16T22:58:25.365Z,63.13
2023-03-16T23:00:51.611Z,66.00
2023-03-16T23:03:17.901Z,67.37
2023-03-16T23:05:44.056Z,65.41
2023-03-16T23:08:10.209Z,58.79
2023-03-16T23:10:36.457Z,62.08
2023-03-16T23:13:02.677Z,64.69
2023-03-16T23:15:29.126Z,63.29
2023-03-16T23:17:55.402Z,59.58
2023-03-16T23:20:21.854Z,61.48
2023-03-16T23:22:48.016Z,62.99
2023-03-16T23:25:14.255Z,62.57
2023-03-16T23:27:40.473Z,63.37
2023-03-16T23:30:06.582Z,63.67
2023-03-16T23:32:32.863Z,62.04
2023-03-16T23:34:59.075Z,60.43
2023-03-16T23:37:25.220Z,60.62
2023-03-16T23:39:51.345Z,64.80
2023-03-16T23:42:17.535Z,65.69
2023-03-16T23:44:43.760Z,59.44
2023-03-16T23:47:09.917Z,62.00
2023-03-16T23:49:36.036Z,61.56
2023-03-16T23:52:02.270Z,62.75
2023-03-16T23:54:28.505Z,60.49
2023-03-16T23:56:54.830Z,60.00
2023-03-16T23:59:21.044Z,61.02
